Flight Track Log - Related Links

Times and Time Zones

All times are in EDT time to prevent confusion due to time zone crossing. See the BJS542 flight status page for this flight to view local times or setup timezone preferences in your user account.

Time Position Orientation Groundspeed Altitude Reporting Facility
EDT Latitude Longitude Course Direction KTS MPH feet Rate Location/Type
Tue 09:35:18 AM 43.7833 -87.8500 305° West 267 307 2,400  Level KMKE
Tue 09:35:48 AM 43.8000 -87.8833 305° West 202 232 3,500 4,133 Climbing KMKE
Tue 09:36:48 AM 43.7500 -87.9500 224° Southwest 256 295 8,600 3,300 Climbing KMKE
Tue 09:37:48 AM 43.6833 -87.9833 200° South 292 336 10,100 583 Climbing KMKE
Tue 09:39:12 AM 43.5667 -88.0500 202° Southwest 328 377 10,000 -50 Descending KMKE
Tue 09:39:48 AM 43.5167 -88.0833 206° Southwest 321 369 10,000  Level KMKE
Tue 09:40:25 AM 43.4722 -88.0975 193° South 321 369 10,000  Level Chicago Center
Tue 09:41:27 AM 43.3856 -88.1097 186° South 318 366 10,000  Level Chicago Center
Tue 09:42:29 AM 43.2942 -88.1042 177° South 324 373 10,000  Level Chicago Center
Tue 09:43:31 AM 43.1858 -88.1006 179° South 331 381 10,000  Level Chicago Center
Tue 09:44:33 AM 43.0911 -88.0944 177° South 336 387 10,000  Level Chicago Center
Tue 09:45:07 AM 43.0333 -88.1000 184° South 324 373 10,000 -1,080 Level KMKE
Tue 09:46:13 AM 42.9500 -88.0833 172° South 282 325 8,200 -1,619 Descending KMKE
Tue 09:47:13 AM 42.8667 -88.0833 180° South 278 320 6,600 -1,310 Descending KMKE
Tue 09:47:40 AM 42.8469 -88.0836 181° South 279 321 6,300 -1,281 Descending Chicago Center
Tue 09:48:42 AM 42.7706 -88.0819 179° South 275 316 4,700 -1,113 Descending Chicago Center
Tue 09:49:44 AM 42.6831 -88.0722 175° South 272 313 4,000 -339 Descending Chicago Center
Tue 09:50:46 AM 42.6078 -88.0619 174° South 271 312 4,000  Level Chicago Center
Tue 09:51:48 AM 42.5347 -88.0367 166° South 271 312 4,000  Level Chicago Center
Tue 09:52:50 AM 42.4614 -88.0181 169° South 268 308 4,000 -145 Level Chicago Center
Tue 09:53:52 AM 42.3919 -88.0319 188° South 255 293 3,700 -484 Descending Chicago Center
Tue 09:54:54 AM 42.3239 -88.0167 171° South 218 251 3,000 -339 Descending Chicago Center
Tue 09:55:56 AM 42.2756 -87.9869 156° South 213 245 3,000 -145 Level Chicago Center
Tue 09:56:58 AM 42.2214 -87.9581 158° South 213 245 2,700 -624 Descending Chicago Center
Tue 09:58:01 AM 42.1700 -87.9333 160° South 207 238 1,700 -952 Descending Chicago Center
Tue 10:00:00 AM 42.1143 -87.9015 180° South  Level Estimated

Login

Don't have an account? Register now (free) for customized features, flight alerts, and more!